createdAt,value
2022-08-03T00:03:44.734Z,30.93
2022-08-03T00:10:30.389Z,30.82
2022-08-03T00:17:18.456Z,30.69
2022-08-03T00:24:04.019Z,30.66
2022-08-03T00:30:49.585Z,30.39
2022-08-03T00:37:41.527Z,30.46
2022-08-03T00:44:27.400Z,30.35
2022-08-03T00:51:13.194Z,30.18
2022-08-03T00:58:05.141Z,29.69
2022-08-03T01:04:50.920Z,29.99
2022-08-03T01:12:00.968Z,29.82
2022-08-03T01:18:58.577Z,29.80
2022-08-03T01:26:03.068Z,29.69
2022-08-03T01:33:01.837Z,29.62
2022-08-03T01:39:48.883Z,29.61
2022-08-03T01:46:35.165Z,29.61
2022-08-03T01:53:24.968Z,29.24
2022-08-03T02:00:12.609Z,29.53
2022-08-03T02:07:02.584Z,29.02
2022-08-03T02:13:54.786Z,29.35
2022-08-03T02:20:44.339Z,29.33
2022-08-03T02:27:33.421Z,29.24
2022-08-03T02:34:25.560Z,29.22
2022-08-03T02:41:16.585Z,29.16
2022-08-03T03:01:54.333Z,28.72
2022-08-03T03:08:40.961Z,28.67
2022-08-03T03:15:27.688Z,28.63
2022-08-03T03:22:17.132Z,28.02
2022-08-03T03:29:03.684Z,28.39
2022-08-03T03:35:50.249Z,28.46
2022-08-03T03:42:38.627Z,28.43
2022-08-03T03:49:24.891Z,28.01
2022-08-03T03:56:10.594Z,28.41
2022-08-03T04:02:58.840Z,28.53
2022-08-03T04:10:08.862Z,28.21
2022-08-03T04:17:04.440Z,28.08
2022-08-03T04:23:56.568Z,27.99
2022-08-03T04:30:47.845Z,27.98
2022-08-03T04:37:43.222Z,27.92
2022-08-03T04:44:32.838Z,27.88
2022-08-03T04:51:18.884Z,27.89
2022-08-03T04:58:06.589Z,27.88
2022-08-03T05:04:55.229Z,27.33
2022-08-03T05:11:41.603Z,27.69
2022-08-03T05:18:27.232Z,27.79
2022-08-03T05:25:16.989Z,28.13
2022-08-03T05:32:08.152Z,28.07
2022-08-03T05:38:54.016Z,28.21
2022-08-03T05:45:46.017Z,28.41
2022-08-03T05:52:31.591Z,28.69
2022-08-03T05:59:37.625Z,28.98
2022-08-03T06:06:27.329Z,29.26
2022-08-03T06:13:16.100Z,29.46
2022-08-03T06:20:01.738Z,29.66
2022-08-03T06:26:49.844Z,29.54
2022-08-03T06:34:30.034Z,29.90
2022-08-03T06:40:41.881Z,30.15
2022-08-03T06:47:30.214Z,30.35
2022-08-03T06:54:16.455Z,30.59
2022-08-03T07:01:02.150Z,30.90
2022-08-03T07:07:50.287Z,31.20
2022-08-03T07:14:36.282Z,31.53
2022-08-03T07:21:21.841Z,31.53
2022-08-03T07:28:10.089Z,31.85
2022-08-03T07:35:00.508Z,32.09
2022-08-03T07:41:46.278Z,32.37
2022-08-03T07:48:34.531Z,32.71
2022-08-03T07:55:21.992Z,33.00
2022-08-03T08:02:07.566Z,33.20
2022-08-03T08:08:59.570Z,33.38
2022-08-03T08:15:45.433Z,33.59
2022-08-03T08:22:32.751Z,33.70
2022-08-03T08:29:23.228Z,33.87
2022-08-03T08:36:14.822Z,34.04
2022-08-03T08:43:00.838Z,34.20
2022-08-03T08:50:08.897Z,34.43
2022-08-03T08:56:57.216Z,34.61
2022-08-03T09:03:43.142Z,34.85
2022-08-03T09:10:31.444Z,35.04
2022-08-03T09:17:17.718Z,35.21
2022-08-03T09:24:10.503Z,35.35
2022-08-03T09:31:11.261Z,35.47
2022-08-03T09:38:14.283Z,35.64
2022-08-03T09:45:00.611Z,35.92
2022-08-03T09:52:32.074Z,36.16
2022-08-03T09:58:54.896Z,36.34
2022-08-03T10:05:44.646Z,36.48
2022-08-03T10:12:33.301Z,36.65
2022-08-03T10:19:19.824Z,36.83
2022-08-03T10:26:07.762Z,37.01
2022-08-03T10:32:59.570Z,37.27
2022-08-03T10:39:56.294Z,37.43
2022-08-03T10:46:45.383Z,37.53
2022-08-03T10:53:54.132Z,37.65
2022-08-03T11:00:53.531Z,37.50
2022-08-03T11:07:39.147Z,37.95
2022-08-03T11:14:27.472Z,37.99
2022-08-03T11:21:13.194Z,37.98
2022-08-03T11:28:30.646Z,38.30
2022-08-03T11:35:20.912Z,38.37
2022-08-03T11:42:48.314Z,38.43
2022-08-03T11:49:34.201Z,38.57
2022-08-03T11:56:22.908Z,38.66
2022-08-03T12:03:11.174Z,38.82
2022-08-03T12:10:11.897Z,38.92
2022-08-03T12:16:59.991Z,38.94
2022-08-03T12:23:46.679Z,39.04
2022-08-03T12:30:32.288Z,39.20
2022-08-03T12:37:23.727Z,39.15
2022-08-03T12:44:11.707Z,39.18
2022-08-03T12:51:12.520Z,39.09
2022-08-03T12:58:00.908Z,39.35
2022-08-03T13:04:47.352Z,39.45
2022-08-03T13:11:57.736Z,39.50
2022-08-03T13:18:41.816Z,39.54
2022-08-03T13:25:27.404Z,39.50
2022-08-03T13:32:14.018Z,39.82
2022-08-03T13:39:02.106Z,39.92
2022-08-03T13:45:53.611Z,39.92
2022-08-03T13:52:42.409Z,40.02
2022-08-03T13:59:31.015Z,40.16
2022-08-03T14:06:16.487Z,40.29
2022-08-03T14:13:02.532Z,40.34
2022-08-03T14:19:53.367Z,40.34
2022-08-03T14:26:39.552Z,40.39
2022-08-03T14:33:26.660Z,40.27
2022-08-03T14:40:15.179Z,40.20
2022-08-03T14:47:01.145Z,40.25
2022-08-03T14:53:46.757Z,40.33
2022-08-03T15:00:34.909Z,40.39
2022-08-03T15:07:20.916Z,40.29
2022-08-03T15:14:09.440Z,40.38
2022-08-03T15:20:57.689Z,40.43
2022-08-03T15:28:03.759Z,40.26
2022-08-03T15:34:51.298Z,40.14
2022-08-03T15:41:39.513Z,40.25
2022-08-03T15:48:26.655Z,40.37
2022-08-03T15:55:15.866Z,40.38
2022-08-03T16:02:05.230Z,40.37
2022-08-03T16:08:51.229Z,40.24
2022-08-03T16:15:38.994Z,40.26
2022-08-03T16:22:27.829Z,40.34
2022-08-03T16:29:23.105Z,40.41
2022-08-03T16:36:10.097Z,40.47
2022-08-03T16:42:58.415Z,40.49
2022-08-03T16:49:55.209Z,40.54
2022-08-03T16:56:41.994Z,40.62
2022-08-03T17:03:42.418Z,40.61
2022-08-03T17:10:36.886Z,40.56
2022-08-03T17:17:37.734Z,40.61
2022-08-03T17:24:42.911Z,40.61
2022-08-03T17:31:32.079Z,40.35
2022-08-03T17:38:32.036Z,40.55
2022-08-03T17:45:24.991Z,40.46
2022-08-03T17:52:38.122Z,40.39
2022-08-03T17:59:50.310Z,40.16
2022-08-03T18:06:56.298Z,40.28
2022-08-03T18:13:57.701Z,40.04
2022-08-03T18:20:45.634Z,40.13
2022-08-03T18:27:42.684Z,40.02
2022-08-03T18:34:34.474Z,40.01
2022-08-03T18:41:33.681Z,39.98
2022-08-03T18:48:30.061Z,39.95
2022-08-03T18:55:32.878Z,39.94
2022-08-03T19:02:31.834Z,39.94
2022-08-03T19:09:29.113Z,39.75
2022-08-03T19:16:24.180Z,39.77
2022-08-03T19:23:11.837Z,39.74
2022-08-03T19:30:14.127Z,39.68
2022-08-03T19:37:08.177Z,39.62
2022-08-03T19:44:04.893Z,39.43
2022-08-03T19:50:56.610Z,39.35
2022-08-03T19:57:49.599Z,39.31
2022-08-03T20:04:35.579Z,39.17
2022-08-03T20:11:28.453Z,38.78
2022-08-03T20:18:16.963Z,38.83
2022-08-03T20:25:06.024Z,38.58
2022-08-03T20:31:54.042Z,38.42
2022-08-03T20:38:47.053Z,38.37
2022-08-03T20:45:59.685Z,38.19
2022-08-03T20:52:49.394Z,37.55
2022-08-03T20:59:50.461Z,37.90
2022-08-03T21:06:41.781Z,37.67
2022-08-03T21:13:45.305Z,37.01
2022-08-03T21:20:35.262Z,37.19
2022-08-03T21:27:21.136Z,36.99
2022-08-03T21:34:09.953Z,36.39
2022-08-03T21:40:56.948Z,36.09
2022-08-03T21:47:45.065Z,36.48
2022-08-03T21:54:43.693Z,36.52
2022-08-03T22:01:35.286Z,36.56
2022-08-03T22:08:21.645Z,36.56
2022-08-03T22:15:13.500Z,36.35
2022-08-03T22:21:59.265Z,36.29
2022-08-03T22:28:45.792Z,36.22
2022-08-03T22:35:44.468Z,36.08
2022-08-03T22:42:35.167Z,35.99
2022-08-03T22:49:21.029Z,35.82
2022-08-03T22:56:10.527Z,35.60
2022-08-03T23:02:58.321Z,35.42
2022-08-03T23:09:47.083Z,35.27
2022-08-03T23:16:40.695Z,35.05
2022-08-03T23:23:26.936Z,34.89
2022-08-03T23:30:15.657Z,34.46
2022-08-03T23:37:09.057Z,34.71
2022-08-03T23:43:55.935Z,34.57
2022-08-03T23:50:48.749Z,34.43
2022-08-03T23:57:49.847Z,34.26
